createdAt,value
2019-03-13T00:42:51.384Z,5.50
2019-03-13T00:45:20.971Z,5.50
2019-03-13T00:47:47.233Z,5.50
2019-03-13T00:50:26.229Z,5.50
2019-03-13T00:52:56.161Z,5.50
2019-03-13T00:55:28.662Z,5.50
2019-03-13T00:57:54.953Z,5.60
2019-03-13T01:00:39.706Z,5.50
2019-03-13T01:03:09.801Z,5.50
2019-03-13T01:05:41.198Z,5.50
2019-03-13T01:08:13.329Z,5.50
2019-03-13T01:10:39.593Z,5.60
2019-03-13T01:13:05.939Z,5.60
2019-03-13T01:15:32.279Z,5.70
2019-03-13T01:17:58.662Z,5.70
2019-03-13T01:20:24.969Z,5.60
2019-03-13T01:22:51.268Z,5.60
2019-03-13T01:25:17.542Z,5.60
2019-03-13T01:27:43.913Z,5.60
2019-03-13T01:30:11.497Z,5.50
2019-03-13T01:32:39.988Z,5.60
2019-03-13T01:35:13.987Z,5.60
2019-03-13T01:37:40.285Z,5.50
2019-03-13T01:40:08.621Z,5.50
2019-03-13T01:42:34.921Z,5.50
2019-03-13T01:45:01.197Z,5.50
2019-03-13T01:47:27.529Z,5.50
2019-03-13T01:49:53.810Z,5.60
2019-03-13T01:52:20.117Z,5.60
2019-03-13T01:54:46.395Z,5.60
2019-03-13T01:57:12.701Z,5.60
2019-03-13T01:59:39.014Z,5.60
2019-03-13T02:02:11.388Z,5.60
2019-03-13T02:04:37.669Z,5.60
2019-03-13T02:07:03.985Z,5.60
2019-03-13T02:09:30.410Z,5.60
2019-03-13T02:11:56.697Z,5.60
2019-03-13T02:14:22.994Z,5.70
2019-03-13T02:16:49.310Z,5.60
2019-03-13T02:19:15.607Z,5.60
2019-03-13T02:21:41.891Z,5.60
2019-03-13T02:24:08.291Z,5.60
2019-03-13T02:26:34.611Z,5.60
2019-03-13T02:29:00.843Z,5.60
2019-03-13T02:31:27.129Z,5.60
2019-03-13T02:33:53.423Z,5.60
2019-03-13T02:36:19.733Z,5.60
2019-03-13T02:38:46.010Z,5.60
2019-03-13T02:41:12.325Z,5.60
2019-03-13T02:43:38.725Z,5.60
2019-03-13T02:46:05.029Z,5.70
2019-03-13T02:48:31.342Z,5.70
2019-03-13T02:50:57.716Z,5.70
2019-03-13T02:53:25.070Z,5.60
2019-03-13T02:55:51.419Z,5.60
2019-03-13T02:58:17.684Z,5.60
2019-03-13T03:00:48.819Z,5.60
2019-03-13T03:03:26.220Z,5.50
2019-03-13T03:05:52.499Z,5.50
2019-03-13T03:08:18.956Z,5.60
2019-03-13T03:10:45.331Z,5.60
2019-03-13T03:13:11.596Z,5.60
2019-03-13T03:15:37.922Z,5.50
2019-03-13T03:18:05.224Z,5.50
2019-03-13T03:20:31.596Z,5.60
2019-03-13T03:22:58.907Z,5.60
2019-03-13T03:25:25.184Z,5.50
2019-03-13T03:27:51.462Z,5.50
2019-03-13T03:30:22.439Z,5.50
2019-03-13T03:32:54.721Z,5.60
2019-03-13T03:35:21.207Z,5.60
2019-03-13T03:37:47.665Z,5.60
2019-03-13T03:40:15.778Z,5.60
2019-03-13T03:42:42.159Z,5.60
2019-03-13T03:45:08.936Z,5.70
2019-03-13T03:47:41.616Z,5.70
2019-03-13T03:50:11.145Z,5.70
2019-03-13T03:52:37.407Z,5.70
2019-03-13T03:55:10.825Z,5.80
2019-03-13T03:57:37.133Z,5.90
2019-03-13T04:00:18.269Z,6.00
2019-03-13T04:02:44.752Z,6.10
2019-03-13T04:05:14.163Z,6.10
2019-03-13T04:07:41.059Z,6.20
2019-03-13T04:10:11.467Z,6.20
2019-03-13T04:12:37.824Z,6.20
2019-03-13T04:15:06.548Z,6.20
2019-03-13T04:17:32.826Z,6.20
2019-03-13T04:20:19.045Z,6.20
2019-03-13T04:22:45.323Z,6.20
2019-03-13T04:25:24.722Z,6.20
2019-03-13T04:27:51.003Z,6.30
2019-03-13T04:30:17.301Z,6.20
2019-03-13T04:32:43.576Z,6.30
2019-03-13T04:35:09.915Z,6.30
2019-03-13T04:37:36.206Z,6.30
2019-03-13T04:40:04.137Z,6.40
2019-03-13T04:42:30.398Z,6.40
2019-03-13T04:44:56.686Z,6.40
2019-03-13T04:47:25.071Z,6.40
2019-03-13T04:49:51.122Z,6.30
2019-03-13T04:52:17.460Z,6.30
2019-03-13T04:54:43.789Z,6.30
2019-03-13T04:57:10.056Z,6.40
2019-03-13T04:59:37.334Z,6.40
2019-03-13T05:02:03.742Z,6.40
2019-03-13T05:04:31.030Z,6.30
2019-03-13T05:06:57.406Z,6.30
2019-03-13T05:09:27.561Z,6.30
2019-03-13T05:12:00.057Z,6.30
2019-03-13T05:14:26.330Z,6.40
2019-03-13T05:16:52.630Z,6.60
2019-03-13T05:19:18.909Z,6.60
2019-03-13T05:21:48.330Z,6.50
2019-03-13T05:24:26.507Z,6.50
2019-03-13T05:26:55.893Z,6.60
2019-03-13T05:29:28.497Z,6.60
2019-03-13T05:31:57.982Z,6.60
2019-03-13T05:34:26.281Z,6.60
2019-03-13T05:36:53.667Z,6.60
2019-03-13T05:39:26.089Z,6.60
2019-03-13T05:42:01.646Z,6.70
2019-03-13T05:44:36.914Z,6.70
2019-03-13T05:47:06.571Z,6.70
2019-03-13T05:49:32.945Z,6.70
2019-03-13T05:52:08.326Z,6.80
2019-03-13T05:54:38.212Z,6.80
2019-03-13T05:57:04.550Z,6.80
2019-03-13T05:59:33.978Z,6.80
2019-03-13T06:02:03.591Z,6.80
2019-03-13T06:04:57.825Z,6.80
2019-03-13T06:07:50.248Z,6.80
2019-03-13T06:10:29.681Z,6.80
2019-03-13T06:12:56.118Z,6.80
2019-03-13T06:15:28.328Z,6.80
2019-03-13T06:18:00.790Z,6.80
2019-03-13T06:20:30.309Z,6.90
2019-03-13T06:23:02.602Z,6.90
2019-03-13T06:25:31.975Z,6.80
2019-03-13T06:28:07.757Z,6.80
2019-03-13T06:30:58.097Z,6.80
2019-03-13T06:33:27.534Z,6.80
2019-03-13T06:35:56.930Z,6.80
2019-03-13T06:38:40.700Z,6.90
2019-03-13T06:41:15.179Z,6.90
2019-03-13T06:43:47.514Z,6.80
2019-03-13T06:46:16.959Z,6.90
2019-03-13T06:48:46.366Z,6.80
2019-03-13T06:51:15.869Z,6.80
2019-03-13T06:54:11.137Z,6.70
2019-03-13T06:56:48.398Z,6.70
2019-03-13T06:59:16.648Z,6.70
2019-03-13T07:01:47.614Z,6.70
2019-03-13T07:04:21.658Z,6.80
2019-03-13T07:06:52.849Z,6.70
2019-03-13T07:09:22.142Z,6.90
2019-03-13T07:11:54.456Z,6.80
2019-03-13T07:14:31.657Z,6.80
2019-03-13T07:17:09.114Z,6.80
2019-03-13T07:20:08.911Z,6.80
2019-03-13T07:22:39.849Z,6.80
2019-03-13T07:25:14.689Z,6.90
2019-03-13T07:28:29.829Z,6.90
2019-03-13T07:31:00.033Z,7.00
2019-03-13T07:33:29.286Z,7.00
2019-03-13T07:36:08.645Z,7.00
2019-03-13T07:38:41.685Z,7.10
2019-03-13T07:41:18.161Z,7.20
2019-03-13T07:43:53.729Z,7.10
2019-03-13T07:46:28.196Z,7.10
2019-03-13T07:48:56.421Z,7.20
2019-03-13T07:51:27.393Z,7.10
2019-03-13T07:54:01.765Z,7.20
2019-03-13T07:56:41.688Z,7.20
2019-03-13T07:59:15.108Z,7.30
2019-03-13T08:01:55.706Z,7.40
2019-03-13T08:04:27.021Z,7.40
2019-03-13T08:07:01.439Z,7.50
2019-03-13T08:09:38.971Z,7.50
2019-03-13T08:12:20.502Z,7.50
2019-03-13T08:15:00.599Z,7.50
2019-03-13T08:17:31.805Z,7.60
2019-03-13T08:20:03.185Z,7.50
2019-03-13T08:22:40.225Z,7.40
2019-03-13T08:25:12.997Z,7.40
2019-03-13T08:27:47.011Z,7.50
2019-03-13T08:30:33.385Z,7.40
2019-03-13T08:33:10.497Z,7.60
2019-03-13T08:35:52.688Z,7.70
2019-03-13T08:38:25.991Z,7.70
2019-03-13T08:41:06.435Z,7.70
2019-03-13T08:43:37.707Z,7.60
2019-03-13T08:46:21.152Z,7.50
2019-03-13T08:49:01.392Z,7.50
2019-03-13T08:51:32.910Z,7.50
2019-03-13T08:54:26.420Z,7.50
2019-03-13T08:57:19.099Z,7.40
2019-03-13T09:00:11.304Z,7.50
2019-03-13T09:03:02.128Z,7.50
2019-03-13T09:05:55.372Z,7.40
2019-03-13T09:08:40.446Z,7.50
2019-03-13T09:11:14.743Z,7.30
2019-03-13T09:14:01.793Z,7.30
2019-03-13T09:16:36.117Z,7.60
2019-03-13T09:19:07.206Z,7.80
2019-03-13T09:21:35.460Z,7.70
2019-03-13T09:24:06.311Z,7.80
2019-03-13T09:26:55.559Z,7.80
2019-03-13T09:29:36.171Z,7.90
2019-03-13T09:32:37.176Z,8.00
2019-03-13T09:35:13.282Z,8.10
2019-03-13T09:38:06.588Z,8.30
2019-03-13T09:40:37.737Z,8.50
2019-03-13T09:43:23.923Z,8.70
2019-03-13T09:46:10.449Z,8.70
2019-03-13T09:49:18.443Z,8.90
2019-03-13T09:51:49.692Z,9.10
2019-03-13T09:54:35.819Z,8.90
2019-03-13T09:57:20.609Z,8.80
2019-03-13T10:00:00.898Z,8.70
2019-03-13T10:02:33.880Z,8.90
2019-03-13T10:05:03.150Z,8.80
2019-03-13T10:07:34.645Z,8.80
2019-03-13T10:10:11.928Z,9.00
2019-03-13T10:12:52.171Z,9.20
2019-03-13T10:15:38.933Z,9.50
2019-03-13T10:18:16.168Z,10.00
2019-03-13T10:20:44.428Z,10.00
2019-03-13T10:23:24.592Z,10.00
2019-03-13T10:26:07.895Z,9.90
2019-03-13T10:28:45.085Z,9.90
2019-03-13T10:31:19.641Z,9.80
2019-03-13T10:34:13.486Z,9.30
2019-03-13T10:36:41.767Z,9.10
2019-03-13T10:39:13.058Z,8.90
2019-03-13T10:41:59.662Z,9.10
2019-03-13T10:44:28.910Z,9.30
2019-03-13T10:47:00.273Z,9.20
2019-03-13T10:49:28.754Z,9.10
2019-03-13T10:51:59.939Z,9.30
2019-03-13T10:54:44.768Z,9.40
2019-03-13T10:57:12.945Z,9.40
2019-03-13T10:59:49.985Z,9.20
2019-03-13T11:02:23.965Z,9.40
2019-03-13T11:04:58.435Z,9.50
2019-03-13T11:07:28.786Z,9.50
2019-03-13T11:10:14.882Z,9.40
2019-03-13T11:12:58.230Z,9.20
2019-03-13T11:15:29.258Z,8.90
2019-03-13T11:18:06.287Z,8.60
2019-03-13T11:21:04.809Z,8.50
2019-03-13T11:23:43.846Z,8.50
2019-03-13T11:26:12.075Z,8.70
2019-03-13T11:28:58.307Z,8.50
2019-03-13T11:31:43.317Z,8.40
2019-03-13T11:34:23.588Z,8.30
2019-03-13T11:37:16.862Z,8.40
2019-03-13T11:40:00.494Z,8.40
2019-03-13T11:42:31.579Z,8.40
2019-03-13T11:45:18.109Z,8.50
2019-03-13T11:47:52.516Z,8.60
2019-03-13T11:50:37.091Z,8.70
2019-03-13T11:53:23.193Z,8.70
2019-03-13T11:56:00.195Z,8.90
2019-03-13T11:58:37.537Z,9.00
2019-03-13T12:01:17.338Z,9.10
2019-03-13T12:03:47.641Z,9.20
2019-03-13T12:06:34.126Z,9.40
2019-03-13T12:09:08.420Z,9.60
2019-03-13T12:11:45.476Z,9.90
2019-03-13T12:14:24.583Z,10.20
2019-03-13T12:17:23.694Z,10.20
2019-03-13T12:19:54.043Z,10.10
2019-03-13T12:22:41.190Z,10.00
2019-03-13T12:25:14.663Z,10.00
2019-03-13T12:28:00.011Z,10.00
2019-03-13T12:30:48.087Z,9.90
2019-03-13T12:33:38.305Z,10.10
2019-03-13T12:36:12.296Z,10.10
2019-03-13T12:38:50.245Z,10.10
2019-03-13T12:41:47.684Z,10.20
2019-03-13T12:44:56.111Z,10.20
2019-03-13T12:47:43.609Z,10.30
2019-03-13T12:50:12.838Z,10.40
2019-03-13T12:53:03.780Z,10.50
2019-03-13T12:55:48.574Z,10.40
2019-03-13T13:01:29.009Z,10.10
2019-03-13T13:04:03.057Z,10.20
2019-03-13T13:06:47.506Z,10.60
2019-03-13T13:09:30.989Z,11.00
2019-03-13T13:12:41.530Z,11.20
2019-03-13T13:15:19.639Z,11.30
2019-03-13T13:18:07.409Z,11.30
2019-03-13T13:24:01.931Z,11.50
2019-03-13T13:26:31.523Z,11.10
2019-03-13T13:29:03.845Z,11.00
2019-03-13T13:31:42.444Z,10.80
2019-03-13T13:34:08.658Z,10.70
2019-03-13T13:36:34.945Z,10.50
2019-03-13T13:39:07.568Z,10.50
2019-03-13T13:42:03.763Z,10.60
2019-03-13T13:44:36.405Z,10.00
2019-03-13T13:47:15.795Z,9.60
2019-03-13T13:49:42.175Z,9.30
2019-03-13T13:52:28.509Z,9.20
2019-03-13T13:54:54.941Z,9.30
2019-03-13T13:57:29.572Z,9.60
2019-03-13T14:00:04.174Z,9.70
2019-03-13T14:02:33.818Z,9.60
2019-03-13T14:05:12.318Z,9.50
2019-03-13T14:07:44.676Z,9.60
2019-03-13T14:10:11.674Z,10.10
2019-03-13T14:12:55.126Z,10.70
2019-03-13T14:15:27.802Z,11.20
2019-03-13T14:18:00.074Z,11.30
2019-03-13T14:24:03.805Z,11.10
2019-03-13T14:26:38.317Z,10.70
2019-03-13T14:29:23.181Z,10.40
2019-03-13T14:32:24.290Z,10.20
2019-03-13T14:34:50.863Z,10.00
2019-03-13T14:37:45.844Z,9.50
2019-03-13T14:40:28.811Z,8.90
2019-03-13T14:42:58.313Z,8.10
2019-03-13T14:45:26.854Z,8.00
2019-03-13T14:47:59.735Z,7.90
2019-03-13T14:50:32.369Z,7.90
2019-03-13T14:53:01.819Z,8.20
2019-03-13T14:55:40.757Z,8.60
2019-03-13T14:58:20.516Z,8.80
2019-03-13T15:00:51.044Z,9.00
2019-03-13T15:03:20.730Z,9.10
2019-03-13T15:05:56.111Z,9.00
2019-03-13T15:08:38.079Z,9.10
2019-03-13T15:11:04.344Z,9.20
2019-03-13T15:13:33.858Z,9.40
2019-03-13T15:16:53.294Z,9.70
2019-03-13T15:19:27.304Z,9.90
2019-03-13T15:21:54.286Z,10.20
2019-03-13T15:24:37.823Z,10.20
2019-03-13T15:27:10.394Z,10.00
2019-03-13T15:29:39.982Z,9.70
2019-03-13T15:32:28.148Z,9.50
2019-03-13T15:35:09.636Z,9.30
2019-03-13T15:38:25.642Z,9.20
2019-03-13T15:40:52.083Z,9.20
2019-03-13T15:43:24.191Z,9.20
2019-03-13T15:45:50.567Z,9.10
2019-03-13T15:48:17.885Z,9.10
2019-03-13T15:50:44.253Z,9.10
2019-03-13T15:53:10.791Z,9.10
2019-03-13T15:55:42.219Z,9.20
2019-03-13T15:58:09.183Z,9.30
2019-03-13T16:00:54.400Z,9.40
2019-03-13T16:03:23.826Z,9.30
2019-03-13T16:05:53.480Z,9.20
2019-03-13T16:08:56.802Z,9.10
2019-03-13T16:11:35.179Z,9.10
2019-03-13T16:14:01.476Z,9.00
2019-03-13T16:16:43.178Z,9.10
2019-03-13T16:19:18.546Z,9.10
2019-03-13T16:21:48.065Z,9.00
2019-03-13T16:24:51.509Z,8.80
2019-03-13T16:27:53.766Z,8.80
2019-03-13T16:30:29.168Z,8.80
2019-03-13T16:33:02.541Z,8.70
2019-03-13T16:35:36.761Z,8.80
2019-03-13T16:38:03.584Z,8.80
2019-03-13T16:40:33.140Z,8.90
2019-03-13T16:42:59.496Z,8.90
2019-03-13T16:45:25.992Z,8.90
2019-03-13T16:48:32.813Z,8.90
2019-03-13T16:51:02.325Z,9.00
2019-03-13T16:53:51.470Z,9.00
2019-03-13T16:56:16.803Z,8.90
2019-03-13T16:58:43.281Z,8.90
2019-03-13T17:01:09.801Z,8.90
2019-03-13T17:03:40.289Z,8.90
2019-03-13T17:06:16.244Z,8.80
2019-03-13T17:08:42.620Z,8.80
2019-03-13T17:11:27.686Z,8.90
2019-03-13T17:13:57.705Z,8.90
2019-03-13T17:16:36.059Z,8.90
2019-03-13T17:19:06.237Z,8.90
2019-03-13T17:21:32.905Z,8.90
2019-03-13T17:23:59.268Z,9.00
2019-03-13T17:26:25.550Z,9.10
2019-03-13T17:32:00.642Z,9.10
2019-03-13T17:34:35.329Z,9.10
2019-03-13T17:37:04.749Z,9.20
2019-03-13T17:39:44.566Z,9.10
2019-03-13T17:42:16.965Z,9.10
2019-03-13T17:44:44.488Z,9.10
2019-03-13T17:47:16.790Z,9.20
2019-03-13T17:50:03.660Z,9.10
2019-03-13T17:52:34.640Z,9.10
2019-03-13T17:55:07.782Z,9.10
2019-03-13T17:57:41.600Z,9.10
2019-03-13T18:00:27.337Z,9.10
2019-03-13T18:02:53.709Z,9.10
2019-03-13T18:05:20.301Z,9.10
2019-03-13T18:07:52.669Z,9.20
2019-03-13T18:10:30.747Z,9.30
2019-03-13T18:13:08.695Z,9.30
2019-03-13T18:15:45.608Z,9.30
2019-03-13T18:18:29.247Z,9.30
2019-03-13T18:21:00.333Z,9.30
2019-03-13T18:26:55.506Z,9.30
2019-03-13T18:29:32.971Z,9.30
2019-03-13T18:32:41.720Z,9.30
2019-03-13T18:35:12.690Z,9.30
2019-03-13T18:37:42.645Z,9.20
2019-03-13T18:40:46.404Z,9.20
2019-03-13T18:43:28.720Z,9.30
2019-03-13T18:45:55.381Z,9.40
2019-03-13T18:48:30.750Z,9.30
2019-03-13T18:51:00.998Z,9.40
2019-03-13T18:53:31.475Z,9.40
2019-03-13T18:56:12.021Z,9.50
2019-03-13T19:02:41.733Z,9.50
2019-03-13T19:05:36.503Z,9.40
2019-03-13T19:08:44.448Z,9.40
2019-03-13T19:11:34.406Z,9.30
2019-03-13T19:14:08.880Z,9.20
2019-03-13T19:16:36.646Z,9.20
2019-03-13T19:19:10.827Z,9.20
2019-03-13T19:21:47.182Z,9.20
2019-03-13T19:24:17.608Z,9.20
2019-03-13T19:26:51.121Z,9.20
2019-03-13T19:29:24.619Z,9.10
2019-03-13T19:31:56.462Z,9.20
2019-03-13T19:34:32.644Z,9.20
2019-03-13T19:37:09.144Z,9.20
2019-03-13T19:39:41.035Z,9.20
2019-03-13T19:42:11.160Z,9.10
2019-03-13T19:44:52.332Z,9.10
2019-03-13T19:47:21.330Z,9.00
2019-03-13T19:50:01.457Z,8.90
2019-03-13T19:52:31.643Z,8.80
2019-03-13T19:54:59.228Z,8.80
2019-03-13T19:57:27.761Z,8.70
2019-03-13T19:59:59.403Z,8.70
2019-03-13T20:02:34.423Z,8.90
2019-03-13T20:05:06.095Z,8.90
2019-03-13T20:07:59.398Z,8.90
2019-03-13T20:10:32.661Z,8.90
2019-03-13T20:13:44.778Z,8.90
2019-03-13T20:16:32.580Z,8.80
2019-03-13T20:19:05.469Z,8.70
2019-03-13T20:21:38.611Z,8.60
2019-03-13T20:24:15.206Z,8.60
2019-03-13T20:26:52.636Z,8.60
2019-03-13T20:29:21.665Z,8.60
2019-03-13T20:31:49.975Z,8.60
2019-03-13T20:34:28.691Z,8.60
2019-03-13T20:36:58.819Z,8.70
2019-03-13T20:39:50.065Z,8.80
2019-03-13T20:42:16.443Z,8.80
2019-03-13T20:44:49.730Z,8.80
2019-03-13T20:47:22.466Z,8.90
2019-03-13T20:49:56.881Z,8.90
2019-03-13T20:52:23.165Z,8.90
2019-03-13T20:54:52.636Z,9.00
2019-03-13T20:57:22.091Z,8.90
2019-03-13T20:59:51.767Z,9.00
2019-03-13T21:02:24.073Z,9.10
2019-03-13T21:04:53.571Z,9.10
2019-03-13T21:07:19.926Z,9.20
2019-03-13T21:09:46.293Z,9.20
2019-03-13T21:12:18.631Z,9.20
2019-03-13T21:14:48.102Z,9.10
2019-03-13T21:17:20.257Z,9.10
2019-03-13T21:19:48.309Z,9.00
2019-03-13T21:22:16.146Z,9.00
2019-03-13T21:24:48.315Z,8.90
2019-03-13T21:27:17.818Z,8.80
2019-03-13T21:29:53.158Z,8.80
2019-03-13T21:32:53.605Z,8.70
2019-03-13T21:35:30.749Z,8.60
2019-03-13T21:38:02.939Z,8.70
2019-03-13T21:40:57.921Z,8.70
2019-03-13T21:47:01.197Z,8.90
2019-03-13T21:49:38.008Z,8.90
2019-03-13T21:52:07.391Z,8.90
2019-03-13T21:54:33.763Z,9.00
2019-03-13T21:57:12.445Z,9.10
2019-03-13T21:59:44.970Z,9.10
2019-03-13T22:02:13.259Z,9.00
2019-03-13T22:04:44.750Z,8.90
2019-03-13T22:07:17.206Z,8.90
2019-03-13T22:09:49.698Z,8.80
2019-03-13T22:12:21.862Z,8.80
2019-03-13T22:15:36.181Z,8.70
2019-03-13T22:18:05.489Z,8.60
2019-03-13T22:20:31.833Z,8.50
2019-03-13T22:23:07.305Z,8.50
2019-03-13T22:25:36.654Z,8.50
2019-03-13T22:28:15.408Z,8.60
2019-03-13T22:30:51.012Z,8.70
2019-03-13T22:33:23.677Z,8.70
2019-03-13T22:35:56.065Z,8.80
2019-03-13T22:38:50.210Z,8.80
2019-03-13T22:41:20.187Z,8.80
2019-03-13T22:44:13.120Z,8.80
2019-03-13T22:46:42.443Z,8.70
2019-03-13T22:49:08.764Z,8.80
2019-03-13T22:51:35.944Z,8.80
2019-03-13T22:54:05.430Z,8.80
2019-03-13T22:57:14.386Z,8.80
2019-03-13T22:59:50.575Z,8.90
2019-03-13T23:02:20.106Z,9.00
2019-03-13T23:04:52.407Z,8.90
2019-03-13T23:07:36.551Z,8.90
2019-03-13T23:10:12.652Z,8.90
2019-03-13T23:12:46.166Z,8.90
2019-03-13T23:15:20.803Z,8.90
2019-03-13T23:17:50.408Z,9.10
2019-03-13T23:20:16.647Z,9.10
2019-03-13T23:22:42.915Z,9.00
2019-03-13T23:25:14.316Z,9.00
2019-03-13T23:27:51.966Z,9.10
2019-03-13T23:30:25.617Z,9.00
2019-03-13T23:32:55.038Z,9.00
2019-03-13T23:35:31.592Z,8.90
2019-03-13T23:38:01.041Z,8.90
2019-03-13T23:40:33.655Z,8.90
2019-03-13T23:42:59.989Z,8.90
2019-03-13T23:45:41.446Z,8.90
2019-03-13T23:48:10.751Z,8.90
2019-03-13T23:50:37.066Z,9.00
2019-03-13T23:53:03.398Z,9.00
2019-03-13T23:55:32.840Z,9.00
2019-03-13T23:58:26.838Z,8.90
